Time,TemperatureF,DewpointF,PressureIn,WindDirection,WindDirectionDegrees,WindSpeedMPH,WindSpeedGustMPH,Humidity,HourlyPrecipIn,Conditions,Clouds,dailyrainin,SoftwareType,DateUTC
2013-08-03 00:14:00,60.5,60.0,29.96,ENE,63,0.0,2.0,98,0.00,,,0.00,weatherlink.com 1.10,2013-08-03 04:14:00,
2013-08-03 00:29:00,60.7,60.0,29.95,ENE,65,0.0,1.0,98,0.00,,,0.00,weatherlink.com 1.10,2013-08-03 04:29:00,
2013-08-03 00:44:00,60.8,60.0,29.95,East,80,0.0,2.0,98,0.00,,,0.00,weatherlink.com 1.10,2013-08-03 04:44:00,
2013-08-03 00:59:00,60.8,60.0,29.94,ENE,59,0.0,2.0,98,0.00,,,0.00,weatherlink.com 1.10,2013-08-03 04:59:00,
2013-08-03 01:14:00,61.0,61.0,29.94,East,101,0.0,4.0,99,0.00,,,0.00,weatherlink.com 1.10,2013-08-03 05:14:00,
2013-08-03 01:29:00,61.2,61.0,29.94,NE,55,0.0,3.0,99,0.00,,,0.00,weatherlink.com 1.10,2013-08-03 05:29:00,
2013-08-03 01:44:00,61.2,61.0,29.93,East,83,1.0,2.0,99,0.00,,,0.00,weatherlink.com 1.10,2013-08-03 05:44:00,
2013-08-03 01:59:00,61.2,61.0,29.94,NE,43,0.0,3.0,99,0.00,,,0.00,weatherlink.com 1.10,2013-08-03 05:59:00,
2013-08-03 02:14:00,61.2,61.0,29.93,NE,40,0.0,4.0,99,0.00,,,0.00,weatherlink.com 1.10,2013-08-03 06:14:00,
2013-08-03 02:29:00,61.2,61.0,29.92,ENE,66,2.0,6.0,99,0.00,,,0.00,weatherlink.com 1.10,2013-08-03 06:29:00,
2013-08-03 02:44:00,61.2,61.0,29.93,ENE,64,0.0,7.0,99,0.00,,,0.00,weatherlink.com 1.10,2013-08-03 06:44:00,
2013-08-03 02:59:00,61.2,61.0,29.92,NE,53,1.0,3.0,99,0.00,,,0.00,weatherlink.com 1.10,2013-08-03 06:59:00,
2013-08-03 03:14:00,61.0,61.0,29.92,NE,56,1.0,5.0,99,0.00,,,0.00,weatherlink.com 1.10,2013-08-03 07:14:00,
2013-08-03 03:29:00,60.9,61.0,29.92,East,83,0.0,3.0,99,0.00,,,0.00,weatherlink.com 1.10,2013-08-03 07:29:00,
2013-08-03 03:44:00,61.0,61.0,29.91,East,96,0.0,3.0,99,0.00,,,0.00,weatherlink.com 1.10,2013-08-03 07:44:00,
2013-08-03 03:59:00,61.0,61.0,29.92,ENE,58,0.0,4.0,99,0.00,,,0.00,weatherlink.com 1.10,2013-08-03 07:59:00,
2013-08-03 04:14:00,60.9,61.0,29.92,NE,49,1.0,2.0,99,0.00,,,0.00,weatherlink.com 1.10,2013-08-03 08:14:00,
2013-08-03 04:29:00,60.6,60.0,29.92,NNE,28,1.0,3.0,99,0.00,,,0.00,weatherlink.com 1.10,2013-08-03 08:29:00,
2013-08-03 04:44:00,60.2,60.0,29.92,ENE,65,5.0,6.0,99,0.00,,,0.00,weatherlink.com 1.10,2013-08-03 08:44:00,
2013-08-03 04:59:00,60.2,60.0,29.92,NNW,328,0.0,5.0,99,0.00,,,0.00,weatherlink.com 1.10,2013-08-03 08:59:00,
2013-08-03 05:14:00,60.1,60.0,29.92,NNW,329,0.0,1.0,99,0.00,,,0.00,weatherlink.com 1.10,2013-08-03 09:14:00,
2013-08-03 05:29:00,59.9,60.0,29.92,NNW,329,0.0,1.0,99,0.00,,,0.00,weatherlink.com 1.10,2013-08-03 09:29:00,
2013-08-03 05:44:00,59.9,60.0,29.93,ENE,62,0.0,2.0,99,0.00,,,0.00,weatherlink.com 1.10,2013-08-03 09:44:00,
2013-08-03 05:59:00,59.9,60.0,29.93,ENE,62,0.0,0.0,99,0.00,,,0.00,weatherlink.com 1.10,2013-08-03 09:59:00,
2013-08-03 06:14:00,59.8,60.0,29.93,NW,317,0.0,4.0,99,0.00,,,0.00,weatherlink.com 1.10,2013-08-03 10:14:00,
2013-08-03 06:29:00,59.6,59.0,29.92,NW,317,0.0,6.0,99,0.00,,,0.00,weatherlink.com 1.10,2013-08-03 10:29:00,
2013-08-03 06:44:00,59.8,59.0,29.92,NW,311,0.0,4.0,98,0.00,,,0.00,weatherlink.com 1.10,2013-08-03 10:44:00,
2013-08-03 06:59:00,60.0,60.0,29.92,NW,304,2.0,6.0,98,0.00,,,0.00,weatherlink.com 1.10,2013-08-03 10:59:00,
2013-08-03 07:14:00,60.1,59.0,29.92,WNW,286,2.0,10.0,97,0.00,,,0.00,weatherlink.com 1.10,2013-08-03 11:14:00,
2013-08-03 07:29:00,60.3,59.0,29.91,NW,320,5.0,11.0,95,0.00,,,0.00,weatherlink.com 1.10,2013-08-03 11:29:00,
2013-08-03 07:44:00,60.4,59.0,29.92,WNW,301,0.0,8.0,95,0.00,,,0.00,weatherlink.com 1.10,2013-08-03 11:44:00,
2013-08-03 07:59:00,60.4,59.0,29.91,NW,320,3.0,6.0,95,0.00,,,0.00,weatherlink.com 1.10,2013-08-03 11:59:00,
2013-08-03 08:14:00,60.7,59.0,29.92,NW,320,2.0,7.0,95,0.00,,,0.00,weatherlink.com 1.10,2013-08-03 12:14:00,
2013-08-03 08:29:00,61.0,59.0,29.92,WNW,295,2.0,4.0,94,0.00,,,0.00,weatherlink.com 1.10,2013-08-03 12:29:00,
2013-08-03 08:44:00,60.8,59.0,29.93,NW,311,2.0,8.0,93,0.00,,,0.00,weatherlink.com 1.10,2013-08-03 12:44:00,
2013-08-03 08:59:00,60.5,59.0,29.92,North,5,2.0,11.0,94,0.00,,,0.00,weatherlink.com 1.10,2013-08-03 12:59:00,
2013-08-03 09:15:00,60.4,58.0,29.93,NNW,338,2.0,9.0,93,0.00,,,0.00,weatherlink.com 1.10,2013-08-03 13:15:00,
2013-08-03 09:30:00,60.6,59.0,29.92,NW,311,6.0,7.0,93,0.00,,,0.00,weatherlink.com 1.10,2013-08-03 13:30:00,
2013-08-03 09:45:00,60.8,59.0,29.92,NW,318,2.0,8.0,93,0.00,,,0.00,weatherlink.com 1.10,2013-08-03 13:45:00,
2013-08-03 10:00:00,61.2,59.0,29.93,WNW,296,3.0,7.0,92,0.00,,,0.00,weatherlink.com 1.10,2013-08-03 14:00:00,
2013-08-03 10:15:00,61.7,59.0,29.93,NNW,346,1.0,4.0,92,0.00,,,0.00,weatherlink.com 1.10,2013-08-03 14:15:00,
2013-08-03 10:30:00,62.1,60.0,29.94,NNW,327,2.0,3.0,91,0.00,,,0.00,weatherlink.com 1.10,2013-08-03 14:30:00,
2013-08-03 10:45:00,62.3,59.0,29.94,West,278,5.0,6.0,90,0.00,,,0.00,weatherlink.com 1.10,2013-08-03 14:45:00,
2013-08-03 11:00:00,62.8,59.0,29.94,North,9,0.0,10.0,88,0.00,,,0.00,weatherlink.com 1.10,2013-08-03 15:00:00,
2013-08-03 11:15:00,64.2,60.0,29.94,West,271,3.0,6.0,85,0.00,,,0.00,weatherlink.com 1.10,2013-08-03 15:15:00,
2013-08-03 11:30:00,64.3,59.0,29.94,NW,325,5.0,8.0,84,0.00,,,0.00,weatherlink.com 1.10,2013-08-03 15:30:00,
2013-08-03 11:45:00,64.4,59.0,29.94,NE,56,0.0,9.0,83,0.00,,,0.00,weatherlink.com 1.10,2013-08-03 15:45:00,
2013-08-03 12:00:00,64.4,59.0,29.94,WNW,298,0.0,7.0,82,0.00,,,0.00,weatherlink.com 1.10,2013-08-03 16:00:00,
2013-08-03 12:15:00,65.4,59.0,29.94,WNW,288,1.0,8.0,81,0.00,,,0.00,weatherlink.com 1.10,2013-08-03 16:15:00,
2013-08-03 12:30:00,66.2,58.0,29.94,NW,309,2.0,10.0,76,0.00,,,0.00,weatherlink.com 1.10,2013-08-03 16:30:00,
2013-08-03 12:45:00,67.3,60.0,29.94,WNW,302,5.0,5.0,77,0.00,,,0.00,weatherlink.com 1.10,2013-08-03 16:45:00,
2013-08-03 13:00:00,67.2,60.0,29.94,WSW,254,1.0,7.0,77,0.00,,,0.00,weatherlink.com 1.10,2013-08-03 17:00:00,
2013-08-03 13:15:00,66.6,59.0,29.93,WNW,294,3.0,8.0,77,0.00,,,0.00,weatherlink.com 1.10,2013-08-03 17:15:00,
2013-08-03 13:30:00,67.9,60.0,29.94,SSE,157,2.0,5.0,76,0.00,,,0.00,weatherlink.com 1.10,2013-08-03 17:30:00,
2013-08-03 13:45:00,68.8,60.0,29.93,SE,138,0.0,6.0,73,0.00,,,0.00,weatherlink.com 1.10,2013-08-03 17:45:00,
2013-08-03 14:00:00,69.0,60.0,29.93,SSW,199,1.0,4.0,74,0.00,,,0.00,weatherlink.com 1.10,2013-08-03 18:00:00,
2013-08-03 14:15:00,68.6,60.0,29.94,WNW,295,2.0,6.0,73,0.00,,,0.00,weatherlink.com 1.10,2013-08-03 18:15:00,
2013-08-03 14:31:00,69.2,59.0,29.93,SE,136,0.0,5.0,71,0.00,,,0.00,weatherlink.com 1.10,2013-08-03 18:31:00,
2013-08-03 14:45:00,69.2,61.0,29.93,SW,215,3.0,5.0,74,0.00,,,0.00,weatherlink.com 1.10,2013-08-03 18:45:00,
2013-08-03 15:00:00,67.6,59.0,29.93,NW,321,2.0,8.0,74,0.00,,,0.00,weatherlink.com 1.10,2013-08-03 19:00:00,
2013-08-03 15:15:00,67.8,60.0,29.92,WNW,286,2.0,8.0,76,0.00,,,0.00,weatherlink.com 1.10,2013-08-03 19:15:00,
2013-08-03 15:30:00,67.8,59.0,29.92,South,173,2.0,9.0,74,0.00,,,0.00,weatherlink.com 1.10,2013-08-03 19:30:00,
2013-08-03 15:45:00,67.7,60.0,29.92,WNW,302,2.0,7.0,76,0.00,,,0.00,weatherlink.com 1.10,2013-08-03 19:45:00,
2013-08-03 16:00:00,67.7,60.0,29.92,NW,321,5.0,9.0,75,0.00,,,0.00,weatherlink.com 1.10,2013-08-03 20:00:00,
2013-08-03 16:15:00,67.4,59.0,29.92,WNW,286,5.0,8.0,74,0.00,,,0.00,weatherlink.com 1.10,2013-08-03 20:15:00,
2013-08-03 16:30:00,67.5,58.0,29.92,WSW,252,7.0,8.0,72,0.00,,,0.00,weatherlink.com 1.10,2013-08-03 20:30:00,
2013-08-03 16:45:00,67.9,59.0,29.91,WSW,244,3.0,6.0,73,0.00,,,0.00,weatherlink.com 1.10,2013-08-03 20:45:00,
2013-08-03 17:00:00,66.3,59.0,29.91,NW,307,5.0,6.0,76,0.00,,,0.00,weatherlink.com 1.10,2013-08-03 21:00:00,
2013-08-03 17:15:00,65.5,60.0,29.91,WNW,294,4.0,6.0,81,0.00,,,0.00,weatherlink.com 1.10,2013-08-03 21:15:00,
2013-08-03 17:30:00,65.1,60.0,29.91,WNW,299,1.0,6.0,83,0.00,,,0.00,weatherlink.com 1.10,2013-08-03 21:30:00,
2013-08-03 17:45:00,64.9,60.0,29.90,West,275,1.0,10.0,85,0.00,,,0.00,weatherlink.com 1.10,2013-08-03 21:45:00,
2013-08-03 18:00:00,64.3,60.0,29.90,WNW,290,1.0,10.0,86,0.00,,,0.00,weatherlink.com 1.10,2013-08-03 22:00:00,
2013-08-03 18:15:00,64.2,60.0,29.90,WSW,248,2.0,7.0,86,0.00,,,0.00,weatherlink.com 1.10,2013-08-03 22:15:00,
2013-08-03 18:30:00,64.0,60.0,29.89,West,280,1.0,5.0,87,0.00,,,0.00,weatherlink.com 1.10,2013-08-03 22:30:00,
2013-08-03 18:45:00,64.3,60.0,29.89,West,279,1.0,9.0,85,0.00,,,0.00,weatherlink.com 1.10,2013-08-03 22:45:00,
2013-08-03 19:00:00,63.9,60.0,29.89,WNW,296,2.0,8.0,86,0.00,,,0.00,weatherlink.com 1.10,2013-08-03 23:00:00,
2013-08-03 19:15:00,63.5,60.0,29.89,WNW,286,3.0,8.0,88,0.00,,,0.00,weatherlink.com 1.10,2013-08-03 23:15:00,
2013-08-03 19:30:00,62.8,60.0,29.89,West,268,3.0,9.0,91,0.00,,,0.00,weatherlink.com 1.10,2013-08-03 23:30:00,
2013-08-03 19:45:00,62.4,60.0,29.89,NNW,344,3.0,7.0,92,0.00,,,0.00,weatherlink.com 1.10,2013-08-03 23:45:00,
2013-08-03 20:00:00,62.2,60.0,29.89,ENE,72,0.0,6.0,92,0.00,,,0.00,weatherlink.com 1.10,2013-08-04 00:00:00,
2013-08-03 20:15:00,61.8,60.0,29.89,West,266,3.0,5.0,93,0.00,,,0.00,weatherlink.com 1.10,2013-08-04 00:15:00,
2013-08-03 20:30:00,61.6,60.0,29.89,WNW,289,2.0,5.0,94,0.00,,,0.00,weatherlink.com 1.10,2013-08-04 00:30:00,
2013-08-03 20:45:00,61.2,60.0,29.89,WNW,298,4.0,9.0,95,0.00,,,0.00,weatherlink.com 1.10,2013-08-04 00:45:00,
2013-08-03 21:00:00,61.1,60.0,29.89,WNW,302,2.0,9.0,96,0.00,,,0.00,weatherlink.com 1.10,2013-08-04 01:00:00,
2013-08-03 21:15:00,61.1,60.0,29.90,NNE,30,5.0,7.0,96,0.00,,,0.00,weatherlink.com 1.10,2013-08-04 01:15:00,
2013-08-03 21:30:00,61.0,60.0,29.90,WNW,292,7.0,9.0,97,0.00,,,0.00,weatherlink.com 1.10,2013-08-04 01:30:00,
2013-08-03 21:45:00,60.8,60.0,29.90,ENE,63,0.0,7.0,97,0.00,,,0.00,weatherlink.com 1.10,2013-08-04 01:45:00,
2013-08-03 22:00:00,60.8,60.0,29.91,NW,309,2.0,9.0,97,0.00,,,0.00,weatherlink.com 1.10,2013-08-04 02:00:00,
2013-08-03 22:15:00,60.9,60.0,29.90,SE,137,0.0,4.0,97,0.00,,,0.00,weatherlink.com 1.10,2013-08-04 02:15:00,
2013-08-03 22:31:00,60.9,60.0,29.90,NW,310,0.0,5.0,97,0.00,,,0.00,weatherlink.com 1.10,2013-08-04 02:31:00,
2013-08-03 22:46:00,60.9,60.0,29.90,NW,313,3.0,5.0,96,0.00,,,0.00,weatherlink.com 1.10,2013-08-04 02:46:00,
2013-08-03 23:01:00,60.9,60.0,29.91,NW,311,2.0,5.0,97,0.00,,,0.00,weatherlink.com 1.10,2013-08-04 03:01:00,
2013-08-03 23:15:00,61.0,60.0,29.91,SSW,211,0.0,5.0,97,0.00,,,0.00,weatherlink.com 1.10,2013-08-04 03:15:00,
2013-08-03 23:30:00,61.0,60.0,29.91,WNW,293,0.0,4.0,97,0.00,,,0.00,weatherlink.com 1.10,2013-08-04 03:30:00,
2013-08-03 23:46:00,60.9,60.0,29.90,NW,323,2.0,5.0,97,0.00,,,0.00,weatherlink.com 1.10,2013-08-04 03:46:00,